createdAt,value
2018-09-17T00:02:05.897Z,95895.35
2018-09-17T00:04:33.766Z,95895.91
2018-09-17T00:07:01.755Z,95905.49
2018-09-17T00:09:29.630Z,95908.73
2018-09-17T00:11:57.573Z,95900.80
2018-09-17T00:14:25.438Z,95908.80
2018-09-17T00:16:53.324Z,95910.23
2018-09-17T00:19:21.185Z,95913.91
2018-09-17T00:21:49.064Z,95909.95
2018-09-17T00:24:16.957Z,95903.27
2018-09-17T00:26:44.896Z,95905.55
2018-09-17T00:29:12.778Z,95901.80
2018-09-17T00:31:40.694Z,95911.98
2018-09-17T00:34:08.638Z,95910.74
2018-09-17T00:36:36.596Z,95906.98
2018-09-17T00:39:07.977Z,95910.16
2018-09-17T00:41:35.989Z,95908.08
2018-09-17T00:44:04.083Z,95901.02
2018-09-17T00:46:32.001Z,95907.80
2018-09-17T00:48:59.928Z,95910.70
2018-09-17T00:51:28.050Z,95907.36
2018-09-17T00:53:55.956Z,95904.45
2018-09-17T00:56:23.926Z,95908.08
2018-09-17T00:58:51.884Z,95906.26
2018-09-17T01:01:19.858Z,95911.26
2018-09-17T01:03:47.788Z,95906.72
2018-09-17T01:06:15.746Z,95918.40
2018-09-17T01:08:43.693Z,95908.58
2018-09-17T01:11:11.621Z,95907.19
2018-09-17T01:13:39.523Z,95904.34
2018-09-17T01:16:07.422Z,95905.53
2018-09-17T01:18:35.334Z,95902.84
2018-09-17T01:21:03.480Z,95904.34
2018-09-17T01:23:31.382Z,95897.50
2018-09-17T01:25:59.314Z,95904.48
2018-09-17T01:28:27.297Z,95899.18
2018-09-17T01:30:55.948Z,95902.95
2018-09-17T01:33:23.831Z,95899.25
2018-09-17T01:35:51.875Z,95897.02
2018-09-17T01:38:19.771Z,95905.80
2018-09-17T01:40:47.679Z,95903.48
2018-09-17T01:43:15.854Z,95896.01
2018-09-17T01:45:43.826Z,95895.22
2018-09-17T01:48:11.670Z,95894.09
2018-09-17T01:50:39.545Z,95893.13
2018-09-17T01:53:14.138Z,95895.88
2018-09-17T01:55:42.123Z,95889.44
2018-09-17T01:58:10.094Z,95896.91
2018-09-17T02:00:38.028Z,95888.58
2018-09-17T02:03:05.976Z,95884.48
2018-09-17T02:05:33.902Z,95882.53
2018-09-17T02:08:01.801Z,95882.66
2018-09-17T02:10:29.711Z,95874.94
2018-09-17T02:12:57.630Z,95877.05
2018-09-17T02:15:25.553Z,95881.03
2018-09-17T02:17:53.524Z,95881.20
2018-09-17T02:20:21.402Z,95885.88
2018-09-17T02:22:49.378Z,95888.60
2018-09-17T02:25:17.339Z,95891.63
2018-09-17T02:27:45.374Z,95885.02
2018-09-17T02:30:13.303Z,95889.34
2018-09-17T02:32:41.299Z,95886.75
2018-09-17T02:35:09.169Z,95896.12
2018-09-17T02:37:37.184Z,95895.99
2018-09-17T02:40:09.886Z,95900.80
2018-09-17T02:42:37.898Z,95897.70
2018-09-17T02:45:06.021Z,95897.78
2018-09-17T02:47:33.958Z,95894.99
2018-09-17T02:50:01.935Z,95893.73
2018-09-17T02:52:29.849Z,95893.17
2018-09-17T02:54:57.754Z,95893.63
2018-09-17T02:57:25.657Z,95893.22
2018-09-17T02:59:53.681Z,95888.69
2018-09-17T03:02:21.661Z,95891.45
2018-09-17T03:04:49.887Z,95896.59
2018-09-17T03:07:17.745Z,95899.30
2018-09-17T03:09:45.703Z,95896.17
2018-09-17T03:12:13.636Z,95897.02
2018-09-17T03:14:41.528Z,95906.37
2018-09-17T03:17:11.789Z,95916.52
2018-09-17T03:19:40.525Z,95908.89
2018-09-17T03:22:08.876Z,95909.64
2018-09-17T03:24:36.975Z,95911.68
2018-09-17T03:27:05.144Z,95912.92
2018-09-17T03:29:32.994Z,95913.88
2018-09-17T03:32:01.005Z,95913.29
2018-09-17T03:34:28.955Z,95911.92
2018-09-17T03:36:56.834Z,95910.33
2018-09-17T03:39:24.911Z,95927.48
2018-09-17T03:41:52.904Z,95919.16
2018-09-17T03:44:20.819Z,95913.52
2018-09-17T03:46:48.839Z,95922.30
2018-09-17T03:49:16.721Z,95921.66
2018-09-17T03:51:44.628Z,95919.74
2018-09-17T03:54:12.594Z,95924.15
2018-09-17T03:56:40.714Z,95929.77
2018-09-17T03:59:08.677Z,95926.58
2018-09-17T04:01:37.575Z,95925.23
2018-09-17T04:04:05.507Z,95924.33
2018-09-17T04:06:33.445Z,95932.50
2018-09-17T04:09:01.300Z,95935.52
2018-09-17T04:11:29.606Z,95936.72
2018-09-17T04:13:57.662Z,95934.75
2018-09-17T04:16:25.682Z,95935.33
2018-09-17T04:18:53.686Z,95935.17
2018-09-17T04:21:21.602Z,95935.62
2018-09-17T04:23:49.641Z,95930.44
2018-09-17T04:26:17.626Z,95934.80
2018-09-17T04:28:46.118Z,95934.94
2018-09-17T04:31:14.008Z,95938.81
2018-09-17T04:33:43.115Z,95943.45
2018-09-17T04:36:11.913Z,95943.73
2018-09-17T04:38:39.846Z,95946.30
2018-09-17T04:41:08.029Z,95941.58
2018-09-17T04:43:36.002Z,95950.36
2018-09-17T04:46:03.951Z,95957.48
2018-09-17T04:48:31.922Z,95947.34
2018-09-17T04:50:59.930Z,95953.87
2018-09-17T04:53:27.942Z,95940.27
2018-09-17T04:55:56.011Z,95955.18
2018-09-17T04:58:23.947Z,95952.70
2018-09-17T05:00:52.834Z,95960.20
2018-09-17T05:03:20.799Z,95953.78
2018-09-17T05:05:48.966Z,95956.56
2018-09-17T05:08:16.874Z,95954.11
2018-09-17T05:10:45.046Z,95947.71
2018-09-17T05:13:13.193Z,95952.81
2018-09-17T05:15:41.842Z,95961.83
2018-09-17T05:18:09.870Z,95957.30
2018-09-17T05:20:37.900Z,95962.37
2018-09-17T05:23:06.518Z,95961.44
2018-09-17T05:25:34.482Z,95960.66
2018-09-17T05:28:02.510Z,95956.48
2018-09-17T05:30:30.554Z,95952.27
2018-09-17T05:32:58.740Z,95950.88
2018-09-17T05:35:26.879Z,95956.88
2018-09-17T05:37:54.821Z,95954.95
2018-09-17T05:40:22.751Z,95960.73
2018-09-17T05:42:50.838Z,95957.11
2018-09-17T05:45:18.766Z,95964.44
2018-09-17T05:47:46.854Z,95958.22
2018-09-17T05:50:15.782Z,95962.23
2018-09-17T05:52:43.834Z,95973.55
2018-09-17T05:55:11.872Z,95962.83
2018-09-17T05:57:39.873Z,95967.90
2018-09-17T06:00:07.990Z,95970.55
2018-09-17T06:02:35.874Z,95967.77
2018-09-17T06:05:03.904Z,95971.08
2018-09-17T06:07:32.022Z,95973.20
2018-09-17T06:10:00.063Z,95976.55
2018-09-17T06:12:28.110Z,95971.43
2018-09-17T06:14:56.389Z,95981.25
2018-09-17T06:17:24.380Z,95982.30
2018-09-17T06:19:52.460Z,95984.18
2018-09-17T06:22:20.498Z,95979.87
2018-09-17T06:24:48.879Z,95979.68
2018-09-17T06:27:17.070Z,95973.19
2018-09-17T06:29:45.092Z,95979.95
2018-09-17T06:32:13.312Z,95986.45
2018-09-17T06:34:42.238Z,95986.50
2018-09-17T06:37:10.129Z,95980.22
2018-09-17T06:39:38.093Z,95979.78
2018-09-17T06:42:06.058Z,95988.54
2018-09-17T06:44:34.095Z,95983.56
2018-09-17T06:47:02.218Z,95987.94
2018-09-17T06:49:30.294Z,95991.59
2018-09-17T06:51:58.304Z,95988.25
2018-09-17T06:54:26.273Z,95993.09
2018-09-17T06:56:55.202Z,95989.63
2018-09-17T06:59:23.265Z,95992.02
2018-09-17T07:01:51.320Z,95997.72
2018-09-17T07:04:19.903Z,95993.09
2018-09-17T07:06:48.413Z,95997.88
2018-09-17T07:09:16.442Z,95996.82
2018-09-17T07:11:45.249Z,96003.84
2018-09-17T07:14:13.181Z,96002.26
2018-09-17T07:16:41.102Z,96014.30
2018-09-17T07:19:09.084Z,96005.08
2018-09-17T07:21:37.867Z,96007.25
2018-09-17T07:24:06.023Z,96007.59
2018-09-17T07:26:33.979Z,96008.94
2018-09-17T07:29:02.055Z,96011.94
2018-09-17T07:31:30.401Z,96008.38
2018-09-17T07:33:58.839Z,96006.89
2018-09-17T07:36:26.915Z,96000.42
2018-09-17T07:38:54.903Z,96006.23
2018-09-17T07:41:23.331Z,96006.28
2018-09-17T07:43:51.318Z,96012.16
2018-09-17T07:46:19.348Z,95996.87
2018-09-17T07:48:49.602Z,96004.29
2018-09-17T07:51:17.628Z,96001.19
2018-09-17T07:53:45.711Z,95996.36
2018-09-17T07:56:13.824Z,95987.03
2018-09-17T07:58:42.078Z,95995.38
2018-09-17T08:01:10.089Z,95995.06
2018-09-17T08:03:38.000Z,95995.89
2018-09-17T08:06:05.955Z,95987.30
2018-09-17T08:08:34.023Z,95987.73
2018-09-17T08:11:02.052Z,95984.09
2018-09-17T08:13:30.125Z,95984.03
2018-09-17T08:15:58.033Z,95973.83
2018-09-17T08:18:26.070Z,95969.31
2018-09-17T08:20:54.153Z,95968.83
2018-09-17T08:23:22.257Z,95969.14
2018-09-17T08:25:50.268Z,95969.80
2018-09-17T08:28:18.444Z,95964.99
2018-09-17T08:30:46.487Z,95963.42
2018-09-17T08:33:14.430Z,95961.30
2018-09-17T08:35:42.387Z,95957.54
2018-09-17T08:38:10.388Z,95951.30
2018-09-17T08:40:39.511Z,95948.89
2018-09-17T08:43:08.013Z,95949.92
2018-09-17T08:45:36.433Z,95942.84
2018-09-17T08:48:05.429Z,95945.34
2018-09-17T08:50:33.388Z,95946.96
2018-09-17T08:53:01.414Z,95952.40
2018-09-17T08:55:34.643Z,95948.77
2018-09-17T08:58:08.203Z,95951.17
2018-09-17T09:00:42.518Z,95942.58
2018-09-17T09:03:16.128Z,95939.62
2018-09-17T09:05:48.522Z,95884.70
2018-09-17T09:08:16.618Z,95937.98
2018-09-17T09:10:46.869Z,95936.31
2018-09-17T09:13:24.856Z,95927.69
2018-09-17T09:15:52.899Z,95924.92
2018-09-17T09:18:20.970Z,95924.54
2018-09-17T09:20:48.923Z,95916.48
2018-09-17T09:23:16.899Z,95909.70
2018-09-17T09:25:45.002Z,95907.94
2018-09-17T09:28:13.006Z,95903.39
2018-09-17T09:30:41.235Z,95908.66
2018-09-17T09:33:09.236Z,95899.73
2018-09-17T09:35:37.311Z,95900.51
2018-09-17T09:38:05.487Z,95897.80
2018-09-17T09:40:33.434Z,95900.81
2018-09-17T09:43:01.438Z,95886.19
2018-09-17T09:45:29.615Z,95887.38
2018-09-17T09:47:57.497Z,95889.92
2018-09-17T09:50:27.669Z,95880.20
2018-09-17T09:52:55.722Z,95878.69
2018-09-17T09:55:23.657Z,95876.22
2018-09-17T09:57:51.917Z,95880.04
2018-09-17T10:00:25.413Z,95873.66
2018-09-17T10:02:59.918Z,95873.56
2018-09-17T10:05:28.080Z,95876.68
2018-09-17T10:07:56.094Z,95877.69
2018-09-17T10:10:30.246Z,95871.59
2018-09-17T10:13:03.928Z,95868.06
2018-09-17T10:15:35.433Z,95871.28
2018-09-17T10:18:09.724Z,95866.08
2018-09-17T10:20:37.767Z,95869.92
2018-09-17T10:23:06.879Z,95862.03
2018-09-17T10:25:34.762Z,95861.63
2018-09-17T10:28:02.769Z,95854.72
2018-09-17T10:30:30.811Z,95858.97
2018-09-17T10:32:59.844Z,95861.39
2018-09-17T10:35:27.860Z,95857.19
2018-09-17T10:37:56.032Z,95849.92
2018-09-17T10:40:24.166Z,95856.06
2018-09-17T10:42:52.278Z,95850.94
2018-09-17T10:45:20.872Z,95849.84
2018-09-17T10:47:48.861Z,95846.34
2018-09-17T10:50:16.862Z,95845.64
2018-09-17T10:52:44.842Z,95838.92
2018-09-17T10:55:12.936Z,95839.87
2018-09-17T10:57:41.054Z,95843.02
2018-09-17T11:00:09.038Z,95843.96
2018-09-17T11:02:37.171Z,95835.72
2018-09-17T11:05:05.573Z,95839.87
2018-09-17T11:07:34.018Z,95833.54
2018-09-17T11:10:02.006Z,95835.62
2018-09-17T11:12:29.966Z,95832.09
2018-09-17T11:14:57.925Z,95835.52
2018-09-17T11:17:26.154Z,95825.16
2018-09-17T11:19:54.501Z,95830.69
2018-09-17T11:22:22.424Z,95820.64
2018-09-17T11:24:50.510Z,95829.17
2018-09-17T11:27:18.601Z,95824.45
2018-09-17T11:29:46.962Z,95830.34
2018-09-17T11:32:14.846Z,95828.72
2018-09-17T11:34:42.745Z,95828.89
2018-09-17T11:37:10.757Z,95828.52
2018-09-17T11:39:38.770Z,95817.94
2018-09-17T11:42:07.142Z,95817.77
2018-09-17T11:44:35.878Z,95818.92
2018-09-17T11:47:03.847Z,95818.59
2018-09-17T11:49:31.965Z,95822.39
2018-09-17T11:52:00.191Z,95817.37
2018-09-17T11:54:28.134Z,95819.70
2018-09-17T11:56:56.234Z,95812.34
2018-09-17T11:59:24.298Z,95811.20
2018-09-17T12:01:57.691Z,95809.23
2018-09-17T12:04:30.617Z,95797.34
2018-09-17T12:07:03.989Z,95793.68
2018-09-17T12:09:32.003Z,95797.73
2018-09-17T12:12:00.041Z,95795.20
2018-09-17T12:14:28.140Z,95789.72
2018-09-17T12:16:56.430Z,95789.18
2018-09-17T12:19:24.438Z,95781.07
2018-09-17T12:21:52.437Z,95789.19
2018-09-17T12:24:20.345Z,95787.75
2018-09-17T12:26:48.320Z,95784.19
2018-09-17T12:29:16.266Z,95781.41
2018-09-17T12:31:44.185Z,95781.11
2018-09-17T12:34:12.205Z,95782.59
2018-09-17T12:36:41.262Z,95781.00
2018-09-17T12:39:12.497Z,95776.42
2018-09-17T12:41:40.602Z,95772.66
2018-09-17T12:44:09.162Z,95771.03
2018-09-17T12:46:37.255Z,95765.71
2018-09-17T12:49:06.350Z,95764.32
2018-09-17T12:51:34.666Z,95764.66
2018-09-17T12:54:03.415Z,95762.86
2018-09-17T12:56:31.720Z,95761.86
2018-09-17T12:59:00.003Z,95254.57
2018-09-17T13:01:28.775Z,95756.72
2018-09-17T13:03:57.663Z,95755.59
2018-09-17T13:06:26.364Z,95749.31
2018-09-17T13:08:55.665Z,95750.31
2018-09-17T13:11:23.682Z,95750.44
2018-09-17T13:13:51.848Z,95745.77
2018-09-17T13:16:22.484Z,95732.33
2018-09-17T13:18:51.413Z,95740.84
2018-09-17T13:21:21.109Z,95732.97
2018-09-17T13:23:49.373Z,95735.34
2018-09-17T13:26:17.449Z,95727.58
2018-09-17T13:28:46.872Z,95727.94
2018-09-17T13:31:15.167Z,95728.73
2018-09-17T13:33:43.672Z,95724.20
2018-09-17T13:36:11.662Z,95727.15
2018-09-17T13:38:39.638Z,95725.02
2018-09-17T13:41:10.116Z,95728.58
2018-09-17T13:43:38.992Z,95723.78
2018-09-17T13:46:07.372Z,95721.20
2018-09-17T13:48:36.233Z,95719.31
2018-09-17T13:51:04.270Z,95720.42
2018-09-17T13:53:32.763Z,95718.97
2018-09-17T13:56:03.207Z,95717.57
2018-09-17T13:58:31.384Z,95710.11
2018-09-17T14:00:59.592Z,95708.59
2018-09-17T14:03:28.332Z,95706.38
2018-09-17T14:05:57.389Z,95703.55
2018-09-17T14:08:25.514Z,95692.70
2018-09-17T14:10:54.355Z,95695.66
2018-09-17T14:13:22.957Z,95694.33
2018-09-17T14:15:56.332Z,95693.23
2018-09-17T14:18:24.302Z,95689.30
2018-09-17T14:20:52.385Z,95687.42
2018-09-17T14:23:21.336Z,95685.02
2018-09-17T14:25:49.333Z,95692.97
2018-09-17T14:28:17.435Z,95696.20
2018-09-17T14:30:45.390Z,95690.86
2018-09-17T14:33:19.210Z,95684.77
2018-09-17T14:35:47.264Z,95686.28
2018-09-17T14:38:15.251Z,95683.98
2018-09-17T14:40:43.404Z,95682.44
2018-09-17T14:43:11.494Z,95673.77
2018-09-17T14:45:40.371Z,95683.11
2018-09-17T14:48:08.380Z,95689.53
2018-09-17T14:50:36.504Z,95690.91
2018-09-17T14:53:04.644Z,95683.07
2018-09-17T14:55:32.959Z,95682.14
2018-09-17T14:58:01.078Z,95687.00
2018-09-17T15:00:29.023Z,95691.21
2018-09-17T15:02:57.138Z,95682.38
2018-09-17T15:05:25.123Z,95683.23
2018-09-17T15:07:53.146Z,95691.75
2018-09-17T15:10:21.280Z,95690.66
2018-09-17T15:12:49.345Z,95682.14
2018-09-17T15:15:17.474Z,95681.39
2018-09-17T15:17:45.718Z,95691.77
2018-09-17T15:20:13.592Z,95688.96
2018-09-17T15:22:41.722Z,95687.02
2018-09-17T15:25:09.703Z,95674.31
2018-09-17T15:27:38.014Z,95674.11
2018-09-17T15:30:08.923Z,95683.97
2018-09-17T15:32:37.153Z,95696.01
2018-09-17T15:35:06.270Z,95688.24
2018-09-17T15:37:35.288Z,95691.77
2018-09-17T15:40:04.404Z,95695.41
2018-09-17T15:42:33.484Z,95696.02
2018-09-17T15:45:02.796Z,95704.19
2018-09-17T15:47:32.424Z,95697.98
2018-09-17T15:50:14.456Z,95703.23
2018-09-17T15:52:45.464Z,95702.58
2018-09-17T15:55:13.530Z,95709.20
2018-09-17T15:57:42.048Z,95703.66
2018-09-17T16:00:10.284Z,95708.78
2018-09-17T16:02:38.453Z,95704.86
2018-09-17T16:05:06.781Z,95702.09
2018-09-17T16:07:35.139Z,95702.98
2018-09-17T16:10:03.378Z,95704.47
2018-09-17T16:12:31.763Z,95707.92
2018-09-17T16:14:59.928Z,95705.59
2018-09-17T16:17:28.012Z,95708.88
2018-09-17T16:19:57.346Z,95700.83
2018-09-17T16:22:25.508Z,95702.25
2018-09-17T16:24:53.869Z,95701.20
2018-09-17T16:27:22.029Z,95699.42
2018-09-17T16:29:50.733Z,95702.58
2018-09-17T16:32:19.122Z,95701.48
2018-09-17T16:34:47.317Z,95702.46
2018-09-17T16:37:15.332Z,95706.12
2018-09-17T16:39:43.480Z,95705.78
2018-09-17T16:42:14.004Z,95702.52
2018-09-17T16:44:43.254Z,95710.03
2018-09-17T16:48:04.254Z,95705.42
2018-09-17T16:50:32.422Z,95707.44
2018-09-17T16:53:00.436Z,95714.58
2018-09-17T16:55:28.370Z,95716.90
2018-09-17T16:57:56.323Z,95719.69
2018-09-17T17:00:24.434Z,95722.44
2018-09-17T17:02:53.205Z,95719.20
2018-09-17T17:05:21.803Z,95723.76
2018-09-17T17:07:49.828Z,95723.44
2018-09-17T17:10:18.584Z,95500.50
2018-09-17T17:12:46.559Z,95731.24
2018-09-17T17:15:14.508Z,95723.44
2018-09-17T17:17:43.354Z,95734.37
2018-09-17T17:20:19.057Z,95738.02
2018-09-17T17:22:47.175Z,95727.05
2018-09-17T17:25:15.146Z,95733.14
2018-09-17T17:27:43.488Z,95729.53
2018-09-17T17:30:11.535Z,95725.55
2018-09-17T17:32:39.826Z,95727.25
2018-09-17T17:35:07.870Z,95730.55
2018-09-17T17:37:36.552Z,95728.93
2018-09-17T17:40:05.066Z,95722.67
2018-09-17T17:42:33.116Z,95735.20
2018-09-17T17:45:01.129Z,95735.44
2018-09-17T17:47:29.095Z,95738.31
2018-09-17T17:49:57.244Z,95742.44
2018-09-17T17:52:25.819Z,95744.69
2018-09-17T17:54:54.338Z,95748.47
2018-09-17T17:57:22.409Z,95751.81
2018-09-17T17:59:50.622Z,95754.45
2018-09-17T18:02:18.537Z,95748.32
2018-09-17T18:04:46.549Z,95748.47
2018-09-17T18:07:14.613Z,95758.22
2018-09-17T18:09:42.711Z,95757.59
2018-09-17T18:12:10.828Z,95762.95
2018-09-17T18:14:48.829Z,95765.96
2018-09-17T18:17:17.565Z,95772.71
2018-09-17T18:19:46.288Z,95772.36
2018-09-17T18:22:17.091Z,95771.10
2018-09-17T18:24:45.105Z,95775.47
2018-09-17T18:27:13.501Z,95768.47
2018-09-17T18:29:41.468Z,95765.72
2018-09-17T18:32:09.727Z,95773.09
2018-09-17T18:34:38.013Z,95771.11
2018-09-17T18:37:06.283Z,95768.59
2018-09-17T18:39:34.418Z,95766.72
2018-09-17T18:42:02.308Z,95767.33
2018-09-17T18:44:30.359Z,95773.22
2018-09-17T18:46:58.244Z,95768.95
2018-09-17T18:49:26.218Z,95775.25
2018-09-17T18:51:54.118Z,95773.95
2018-09-17T18:54:22.411Z,95757.38
2018-09-17T18:56:51.151Z,95765.13
2018-09-17T18:59:19.835Z,95756.73
2018-09-17T19:01:51.533Z,95763.09
2018-09-17T19:04:19.664Z,95760.06
2018-09-17T19:06:47.595Z,95759.66
2018-09-17T19:09:16.538Z,95766.60
2018-09-17T19:11:44.614Z,95766.91
2018-09-17T19:14:17.858Z,95771.35
2018-09-17T19:16:47.805Z,95772.60
2018-09-17T19:19:15.920Z,95769.43
2018-09-17T19:21:49.806Z,95770.76
2018-09-17T19:24:17.643Z,95779.55
2018-09-17T19:26:45.724Z,95775.67
2018-09-17T19:29:16.068Z,95778.45
2018-09-17T19:31:44.043Z,95776.94
2018-09-17T19:34:12.210Z,95781.77
2018-09-17T19:36:40.154Z,95776.13
2018-09-17T19:39:14.410Z,95779.47
2018-09-17T19:41:42.546Z,95781.79
2018-09-17T19:44:11.178Z,95781.98
2018-09-17T19:46:39.413Z,95781.67
2018-09-17T19:49:07.433Z,95780.20
2018-09-17T19:51:40.977Z,95774.34
2018-09-17T19:54:09.283Z,95781.20
2018-09-17T19:56:37.266Z,95785.55
2018-09-17T19:59:10.788Z,95789.25
2018-09-17T20:01:38.834Z,95788.42
2018-09-17T20:04:12.376Z,95785.61
2018-09-17T20:06:40.822Z,95788.64
2018-09-17T20:09:09.986Z,95787.38
2018-09-17T20:11:39.160Z,95779.27
2018-09-17T20:14:07.546Z,95788.80
2018-09-17T20:16:35.759Z,95783.26
2018-09-17T20:19:03.787Z,95789.38
2018-09-17T20:21:31.770Z,95793.34
2018-09-17T20:23:59.633Z,95794.59
2018-09-17T20:26:27.677Z,95802.52
2018-09-17T20:28:57.013Z,95800.45
2018-09-17T20:31:25.014Z,95807.61
2018-09-17T20:33:53.029Z,95806.24
2018-09-17T20:36:21.076Z,95804.75
2018-09-17T20:38:49.104Z,95805.20
2018-09-17T20:41:17.202Z,95813.50
2018-09-17T20:43:45.363Z,95806.40
2018-09-17T20:46:13.287Z,95805.70
2018-09-17T20:48:41.451Z,95807.42
2018-09-17T20:51:09.512Z,95802.13
2018-09-17T20:53:37.538Z,95809.55
2018-09-17T20:56:05.501Z,95812.02
2018-09-17T20:58:33.663Z,95812.84
2018-09-17T21:01:01.817Z,95810.64
2018-09-17T21:03:29.774Z,95813.20
2018-09-17T21:05:57.797Z,95808.61
2018-09-17T21:08:25.805Z,95810.00
2018-09-17T21:10:53.845Z,95813.47
2018-09-17T21:13:21.859Z,95809.34
2018-09-17T21:15:49.718Z,95814.50
2018-09-17T21:18:18.001Z,95810.22
2018-09-17T21:20:45.929Z,95811.55
2018-09-17T21:23:13.896Z,95823.32
2018-09-17T21:25:42.059Z,95821.51
2018-09-17T21:28:10.172Z,95817.61
2018-09-17T21:30:39.096Z,95825.05
2018-09-17T21:33:07.077Z,95822.87
2018-09-17T21:35:34.948Z,95826.08
2018-09-17T21:38:40.275Z,95829.00
2018-09-17T21:41:08.265Z,95824.63
2018-09-17T21:43:36.845Z,95828.61
2018-09-17T21:46:05.362Z,95832.67
2018-09-17T21:48:35.142Z,95831.61
2018-09-17T21:51:04.059Z,95826.95
2018-09-17T21:53:32.238Z,95824.06
2018-09-17T21:56:00.373Z,95824.22
2018-09-17T21:58:29.311Z,95830.90
2018-09-17T22:01:02.523Z,95834.35
2018-09-17T22:03:34.312Z,95829.12
2018-09-17T22:06:03.393Z,95831.45
2018-09-17T22:08:31.546Z,95835.02
2018-09-17T22:10:59.640Z,95840.91
2018-09-17T22:13:28.103Z,95835.85
2018-09-17T22:15:56.018Z,95836.14
2018-09-17T22:18:24.056Z,95842.29
2018-09-17T22:20:52.154Z,95829.70
2018-09-17T22:23:20.199Z,95832.50
2018-09-17T22:25:49.492Z,95835.17
2018-09-17T22:28:17.467Z,95824.83
2018-09-17T22:30:45.422Z,95819.27
2018-09-17T22:33:13.425Z,95831.73
2018-09-17T22:35:41.362Z,95819.63
2018-09-17T22:38:09.299Z,95824.63
2018-09-17T22:40:37.209Z,95830.19
2018-09-17T22:43:05.271Z,95827.45
2018-09-17T22:45:33.240Z,95826.13
2018-09-17T22:48:01.264Z,95826.19
2018-09-17T22:50:29.826Z,95829.13
2018-09-17T22:52:57.904Z,95818.31
2018-09-17T22:55:25.961Z,95829.28
2018-09-17T22:57:53.993Z,95822.12
2018-09-17T23:00:21.962Z,95822.43
2018-09-17T23:02:50.093Z,95828.62
2018-09-17T23:05:19.084Z,95829.56
2018-09-17T23:07:47.079Z,95825.66
2018-09-17T23:10:16.025Z,95830.48
2018-09-17T23:12:44.019Z,95840.19
2018-09-17T23:15:12.602Z,95835.83
2018-09-17T23:17:40.543Z,95836.12
2018-09-17T23:20:08.661Z,95830.59
2018-09-17T23:22:37.409Z,95835.58
2018-09-17T23:25:05.338Z,95836.71
2018-09-17T23:27:33.281Z,95826.64
2018-09-17T23:30:01.820Z,95831.16
2018-09-17T23:32:29.893Z,95834.79
2018-09-17T23:34:57.942Z,95836.48
2018-09-17T23:37:26.522Z,95835.52
2018-09-17T23:39:54.637Z,95829.90
2018-09-17T23:42:23.399Z,95829.64
2018-09-17T23:44:51.525Z,95826.30
2018-09-17T23:47:19.526Z,95829.14
2018-09-17T23:49:48.184Z,95818.43
2018-09-17T23:52:16.123Z,95817.30
2018-09-17T23:54:44.115Z,95817.46
2018-09-17T23:57:12.001Z,95817.67
2018-09-17T23:59:40.028Z,95828.70
